»·PEaware :: DIS2345 KLAX-KBOI

DIS2345 :: KLAX-KBOI

FLIGHT INFORMATION

Flight Status: Arrived
Operator:
InterSim
More flights by this operator :: More flights under this callsign
Pilot: Jessica F. (17029)
Aircraft: AIRBUS A319
(A319)
More flights by this aircraft type
Origin: KLAX Los Angeles Intl
United States
Destination: KBOI Boise Air Terminal/Gowen
United States
More flights between these airports :: More routes between these airports
Route: LADYJ4 CSTRO FMG PRNCS SADYL3
File this flight plan on PilotEdge
Remarks: PBN / A1B1C1D1O1S1 DOF / 180803 REG / N530VA EET / KZOA0021 KZLC0058 OPR / DIS PER / C RMK / TCAS SIMBRIEF
Altitude:
(Current/Filed)
38,000ft
Speed:
(Current/Filed)
456kts
Departed: 02-Aug-18 05:02 PM
Arrived: 02-Aug-18 06:42 PM
Distance/Time
Traveled:
586nm/1:39
Distance/Time
To Go:
Arrived

Flight Plot

Page will automatically refresh every two minutes.

Flight plan parsing failed; only flown route is shown


Map Options




Map Legend


Flown Route
Filed Route
Departure Airport
Arrival Airport
Navaid (VOR, NDB)
Fix

Horizontal Profiles

Position Reports

Time Latitude Longitude Heading Altitude Ground
Speed
02-Aug-18 16:35 33.946577 -118.404766 118 125ft 0kts
02-Aug-18 16:36 33.946577 -118.404766 118 125ft 0kts
02-Aug-18 16:37 33.946577 -118.404766 118 125ft 0kts
02-Aug-18 16:38 33.946577 -118.404766 118 125ft 0kts
02-Aug-18 16:39 33.946577 -118.404766 118 125ft 0kts
02-Aug-18 16:40 33.946577 -118.404766 118 125ft 0kts
02-Aug-18 16:41 33.946577 -118.404766 118 125ft 0kts
02-Aug-18 16:42 33.946577 -118.404766 118 125ft 0kts
02-Aug-18 16:43 33.946577 -118.404766 118 125ft 0kts
02-Aug-18 16:44 33.946577 -118.404766 118 125ft 0kts
02-Aug-18 16:45 33.946577 -118.404766 118 125ft 0kts
02-Aug-18 16:46 33.946577 -118.404766 118 125ft 0kts
02-Aug-18 16:47 33.946577 -118.404766 118 125ft 0kts
02-Aug-18 16:48 33.946577 -118.404766 118 125ft 0kts
02-Aug-18 16:49 33.946577 -118.404766 118 125ft 0kts
02-Aug-18 16:50 33.946577 -118.404766 118 125ft 0kts
02-Aug-18 16:51 33.946577 -118.404766 118 125ft 0kts
02-Aug-18 16:52 33.946577 -118.404766 118 125ft 0kts
02-Aug-18 16:53 33.946577 -118.404766 118 125ft 0kts
02-Aug-18 16:54 33.946736 -118.405136 119 126ft 2kts
02-Aug-18 16:55 33.946727 -118.405664 15 126ft 2kts
02-Aug-18 16:56 33.947182 -118.405738 353 126ft 0kts
02-Aug-18 16:57 33.947182 -118.405737 353 126ft 0kts
02-Aug-18 16:58 33.947182 -118.405737 353 126ft 0kts
02-Aug-18 16:59 33.947182 -118.405737 353 126ft 0kts
02-Aug-18 17:00 33.948784 -118.404646 81 126ft 19kts
02-Aug-18 17:01 33.949534 -118.399312 36 119ft 0kts
02-Aug-18 17:02 33.949534 -118.399312 36 119ft 0kts
02-Aug-18 17:03 33.950232 -118.402146 262 121ft 63kts
02-Aug-18 17:04 33.944985 -118.450050 263 1603ft 179kts
02-Aug-18 17:05 33.941309 -118.519931 265 4003ft 249kts
02-Aug-18 17:06 33.934619 -118.607195 271 5968ft 268kts
02-Aug-18 17:07 33.981906 -118.668759 333 5985ft 272kts
02-Aug-18 17:08 34.057265 -118.672753 1 6761ft 279kts
02-Aug-18 17:09 34.131046 -118.658650 9 8736ft 288kts
02-Aug-18 17:10 34.211116 -118.639708 9 10830ft 312kts
02-Aug-18 17:11 34.302779 -118.645249 348 13014ft 356kts
02-Aug-18 17:12 34.403193 -118.668241 348 15765ft 373kts
02-Aug-18 17:13 34.506656 -118.689306 349 18226ft 386kts
02-Aug-18 17:14 34.613747 -118.710102 349 20440ft 398kts
02-Aug-18 17:15 34.723239 -118.736983 337 22425ft 408kts
02-Aug-18 17:16 34.824105 -118.802439 328 24256ft 417kts
02-Aug-18 17:17 34.926115 -118.872730 328 25925ft 428kts
02-Aug-18 17:18 35.030426 -118.944677 328 27416ft 437kts
02-Aug-18 17:19 35.133394 -119.015808 328 28694ft 446kts
02-Aug-18 17:20 35.242014 -119.090974 328 29814ft 454kts
02-Aug-18 17:21 35.352589 -119.167946 327 30843ft 460kts
02-Aug-18 17:22 35.470044 -119.227843 342 32166ft 461kts
02-Aug-18 17:23 35.596395 -119.249144 352 33328ft 461kts
02-Aug-18 17:24 35.723669 -119.261312 351 34362ft 457kts
02-Aug-18 17:25 35.848046 -119.273479 350 35761ft 441kts
02-Aug-18 17:26 35.967894 -119.285379 350 36931ft 431kts
02-Aug-18 17:27 36.086985 -119.297253 350 37511ft 433kts
02-Aug-18 17:28 36.205151 -119.308946 350 37472ft 447kts
02-Aug-18 17:29 36.329058 -119.321185 350 37857ft 446kts
02-Aug-18 17:30 36.453644 -119.333676 350 37853ft 453kts
02-Aug-18 17:31 36.579277 -119.346263 350 37853ft 453kts
02-Aug-18 17:32 36.704499 -119.358856 350 37859ft 453kts
02-Aug-18 17:33 36.829909 -119.371521 350 37859ft 456kts
02-Aug-18 17:34 36.956201 -119.384328 350 37860ft 456kts
02-Aug-18 17:35 37.082025 -119.397124 350 37861ft 456kts
02-Aug-18 17:36 37.204659 -119.409541 350 37857ft 456kts
02-Aug-18 17:37 37.330830 -119.422451 349 37889ft 459kts
02-Aug-18 17:38 37.457743 -119.435491 349 38077ft 459kts
02-Aug-18 17:39 37.584694 -119.448572 349 38213ft 458kts
02-Aug-18 17:40 37.711057 -119.461645 349 38252ft 458kts
02-Aug-18 17:41 37.837782 -119.474776 349 38244ft 460kts
02-Aug-18 17:42 37.964802 -119.488070 349 38231ft 460kts
02-Aug-18 17:43 38.091989 -119.501358 349 38231ft 460kts
02-Aug-18 17:44 38.215325 -119.514180 349 38231ft 460kts
02-Aug-18 17:45 38.342364 -119.527515 349 38231ft 462kts
02-Aug-18 17:46 38.470310 -119.541027 349 38230ft 462kts
02-Aug-18 17:47 38.597861 -119.554552 349 38231ft 462kts
02-Aug-18 17:48 38.725724 -119.568149 349 38197ft 462kts
02-Aug-18 17:49 38.853736 -119.581819 349 38123ft 464kts
02-Aug-18 17:50 38.981852 -119.595559 349 38112ft 464kts
02-Aug-18 17:51 39.108200 -119.609159 349 38105ft 464kts
02-Aug-18 17:52 39.235294 -119.622806 348 38102ft 464kts
02-Aug-18 17:53 39.364359 -119.636908 348 38100ft 466kts
02-Aug-18 17:54 39.493893 -119.644682 358 38062ft 475kts
02-Aug-18 17:55 39.622477 -119.600711 20 38054ft 489kts
02-Aug-18 17:56 39.745544 -119.525313 21 38075ft 489kts
02-Aug-18 17:57 39.868755 -119.450240 21 38091ft 492kts
02-Aug-18 17:58 39.992142 -119.374961 21 38099ft 492kts
02-Aug-18 17:59 40.113316 -119.300747 21 38068ft 491kts
02-Aug-18 18:00 40.236709 -119.225162 21 37980ft 492kts
02-Aug-18 18:01 40.360849 -119.148515 21 37965ft 495kts
02-Aug-18 18:02 40.484735 -119.071697 21 37964ft 495kts
02-Aug-18 18:03 40.608827 -118.994446 21 37964ft 495kts
02-Aug-18 18:04 40.732912 -118.916880 21 37964ft 495kts
02-Aug-18 18:05 40.857358 -118.838772 21 37963ft 497kts
02-Aug-18 18:06 40.981647 -118.760415 21 37993ft 497kts
02-Aug-18 18:07 41.103061 -118.683582 21 37999ft 497kts
02-Aug-18 18:08 41.226593 -118.605317 21 38000ft 497kts
02-Aug-18 18:09 41.351517 -118.525618 21 37999ft 499kts
02-Aug-18 18:10 41.476278 -118.445642 21 38000ft 499kts
02-Aug-18 18:11 41.599954 -118.362421 20 37999ft 499kts
02-Aug-18 18:12 41.721554 -118.284778 22 37998ft 500kts
02-Aug-18 18:13 41.846635 -118.203564 22 37970ft 501kts
02-Aug-18 18:14 41.971889 -118.122199 22 37954ft 501kts
02-Aug-18 18:15 42.096906 -118.040805 22 37954ft 501kts
02-Aug-18 18:16 42.218932 -117.961264 22 37953ft 501kts
02-Aug-18 18:17 42.343668 -117.879379 21 37954ft 502kts
02-Aug-18 18:18 42.462423 -117.781862 43 37434ft 503kts
02-Aug-18 18:19 42.549620 -117.638187 50 33782ft 495kts
02-Aug-18 18:20 42.635443 -117.494865 49 29843ft 482kts
02-Aug-18 18:21 42.718402 -117.356548 49 27569ft 464kts
02-Aug-18 18:22 42.795821 -117.226280 50 24935ft 444kts
02-Aug-18 18:23 42.870522 -117.099209 49 21610ft 420kts
02-Aug-18 18:24 42.941418 -116.978399 50 18262ft 400kts
02-Aug-18 18:25 43.009512 -116.861959 50 15740ft 389kts
02-Aug-18 18:26 43.076385 -116.747833 50 13566ft 384kts
02-Aug-18 18:27 43.141105 -116.638671 49 11573ft 369kts
02-Aug-18 18:28 43.204369 -116.533393 47 10010ft 345kts
02-Aug-18 18:29 43.262238 -116.442706 46 9477ft 305kts
02-Aug-18 18:30 43.320221 -116.351110 46 6787ft 332kts
02-Aug-18 18:31 43.373695 -116.258429 54 5986ft 286kts
02-Aug-18 18:32 43.395547 -116.163383 83 6473ft 244kts
02-Aug-18 18:33 43.400668 -116.075673 83 6488ft 233kts
02-Aug-18 18:34 43.405849 -115.986773 83 6490ft 232kts
02-Aug-18 18:35 43.420623 -115.904213 28 6476ft 213kts
02-Aug-18 18:36 43.462390 -115.930836 305 6492ft 181kts
02-Aug-18 18:37 43.485159 -115.987617 296 6037ft 139kts
02-Aug-18 18:38 43.501419 -116.034206 296 5519ft 135kts
02-Aug-18 18:39 43.517313 -116.081063 296 4803ft 135kts
02-Aug-18 18:40 43.533167 -116.127938 296 4081ft 136kts
02-Aug-18 18:41 43.549270 -116.175409 297 3349ft 137kts
02-Aug-18 18:42 43.563605 -116.216537 334 2857ft 45kts
02-Aug-18 18:43 43.565940 -116.218785 294 2853ft 21kts
02-Aug-18 18:44 43.567191 -116.220733 24 2850ft 0kts
02-Aug-18 18:45 43.567223 -116.220713 23 2851ft 0kts

Navigation Log

Ident Type
Flight plan parsing failed, navigation log unavailable